Maple Falls, WA

4:04 PM PDT on August 21, 2014 (GMT -0700)
Peaceful Valley | Change Station
CLOSE
Current Station
Personal Weather Station
Location: Maple Falls, WA
Elevation: 470 ft
Nearby Weather Stations

Elev 470 ft 48.94 °N, 122.14 °W | Updated 4 seconds ago

Clear
Clear
70.8 °F
Feels Like 75 °F
N
0.0
Wind Variable Wind from NE
Gusts 0.0 mph

Today
High -- | Low -- °F
--% Chance of Precip.
Yesterday
High -- | Low -- °F
Precip. -- in
6:09 AM 8:12 PM
Waning Crescent, 12% visible
Pressure 30.00 in
Visibility 10.0 miles
Clouds Clear
Heat Index 75 °F
Dew Point 58 °F
Humidity 64%
Rainfall 0.00 in
Snow Depth Not available.
UV 5 out of 12
Pollen 2.60 out of 12
PM2.5 Good
Flu Activity Not available.
METAR KBLI 212253Z 18007KT 10SM CLR 19/12 A2998 RMK AO2 SLP157 T01940117

More Conditions Fewer Conditions

Pressure 30.00 in
Visibility 10.0 miles
Clouds Clear
Heat Index 75 °F
Dew Point 58 °F
Humidity 64%
Rainfall 0.00 in
Snow Depth Not available.
UV 5 out of 12
Pollen 2.60 out of 12
PM2.5 Good
Flu Activity Not available.
METAR KBLI 212253Z 18007KT 10SM CLR 19/12 A2998 RMK AO2 SLP157 T01940117

More Conditions Fewer Conditions

10-Day Weather Forecast

Almanac

Astronomy

Aug. 21, 2014 Rise Set
Actual Time 6:09 AM PDT 8:12 PM PDT
Civil Twilight 5:35 AM PDT 8:46 PM PDT
Nautical Twilight 4:53 AM PDT 9:28 PM PDT
Astronomical Twilight 4:05 AM PDT 10:15 PM PDT
Moon 2:36 AM PDT 5:52 PM PDT
Length of Visible Light 15h 10m
Length of Day
14h 02m
Tomorrow will be 3m 21s shorter.
Waning Crescent, 12% of the Moon is Illuminated
Today
Waning Crescent
Aug 25
New
Sep 2
First Quarter
Sep 8
Full
Sep 15
Last Quarter

Today's Extremes

State Highs State Lows

Community

WunderPhotos

Upload Photos

1,746,047 photos uploaded!

Nearby

Air Quality

  Air Quality AQ Index Pollutant
Yesterday Good
PM2.5
Current Good
PM2.5
Thursday Good
OZONE
Thursday Good
PM2.5
Friday Good
OZONE
Friday Good
PM2.5
Saturday Good
OZONE
Saturday Good
PM2.5

Snow Depth

Station Depth Elevation
Harts Pass 0 in 6500 ft
Rainy Pass 0 in 4780 ft
Dungeness 4 in 4100 ft
Sasse Ridge 0 in 4200 ft
Grouse Camp 1 in 5380 ft

Earthquake Activity

City Distance Mag. Time & Date
No recent earthquake activity has been reported nearby.
Minimum magnitude displayed is 2.5.

Coastal Water Temperatures

Place Temperature
Port Townsend, WA 54.0 °F
Friday Harbor, WA 53.1 °F
Port Angeles, WA 53.1 °F

Nearby Weather Stations